Time;durP1;ratioP1;P1;durP2;ratioP2;P2;SDS_P1;SDS_P2;PMS_P1;PMS_P2;Temp;Humidity;BMP_temperature;BMP_pressure;BME280_temperature;BME280_humidity;BME280_pressure;Samples;Min_cycle;Max_cycle;Signal;HPM_P1;HPM_P2
2022/06/06 00:01:09;;;;;;;7.32;3.33;;;;;;;;;;4996180;28;20096;-63
2022/06/06 00:03:36;;;;;;;;;;;;;;;;;;4996877;28;20121;-64
2022/06/06 00:06:02;;;;;;;6.72;3.20;;;;;;;;;;4996119;28;19983;-62
2022/06/06 00:08:29;;;;;;;5.47;2.95;;;;;;;;;;4995726;28;20038;-62
2022/06/06 00:10:57;;;;;;;7.60;3.90;;;;;;;;;;4995149;28;20066;-63
2022/06/06 00:13:23;;;;;;;7.07;3.13;;;;;;;;;;4995177;28;20482;-62
2022/06/06 00:15:50;;;;;;;8.27;2.90;;;;;;;;;;4995777;28;20065;-64
2022/06/06 00:18:16;;;;;;;6.15;3.22;;;;;;;;;;4996515;28;20135;-65
2022/06/06 00:20:43;;;;;;;7.20;3.30;;;;;;;;;;4993942;28;20033;-63
2022/06/06 00:23:10;;;;;;;8.02;3.72;;;;;;;;;;4996156;28;20145;-63
2022/06/06 00:25:36;;;;;;;7.95;3.60;;;;;;;;;;4995163;28;20115;-65
2022/06/06 00:28:03;;;;;;;7.40;3.80;;;;;;;;;;4995589;28;20042;-64
2022/06/06 00:30:30;;;;;;;9.25;4.65;;;;;;;;;;4994126;28;20045;-63
2022/06/06 00:35:43;;;;;;;8.45;4.00;;;;;;;;;;4994318;28;20053;-62
2022/06/06 00:38:10;;;;;;;9.80;4.30;;;;;;;;;;4998160;28;20061;-62
2022/06/06 00:40:38;;;;;;;8.35;5.20;;;;;;;;;;4992886;28;20034;-65
2022/06/06 00:43:05;;;;;;;8.05;4.80;;;;;;;;;;4996463;28;20090;-63
2022/06/06 00:45:36;;;;;;;7.97;4.88;;;;;;;;;;5003040;28;20101;-65
2022/06/06 00:48:18;;;;;;;10.23;5.07;;;;;;;;;;5007842;28;20189;-64
2022/06/06 00:50:58;;;;;;;8.48;5.40;;;;;;;;;;4995818;28;20057;-62
2022/06/06 00:53:32;;;;;;;8.98;6.15;;;;;;;;;;4994984;28;20445;-63
2022/06/06 00:56:02;;;;;;;9.45;5.63;;;;;;;;;;4995777;28;20041;-64
2022/06/06 00:58:31;;;;;;;10.68;5.63;;;;;;;;;;5009401;28;20041;-63
2022/06/06 01:00:57;;;;;;;7.30;5.28;;;;;;;;;;4996371;28;20052;-62
2022/06/06 01:03:25;;;;;;;8.00;5.55;;;;;;;;;;4994489;28;20041;-63
2022/06/06 01:05:53;;;;;;;8.38;5.70;;;;;;;;;;4995424;28;20058;-65
2022/06/06 01:08:20;;;;;;;12.35;6.55;;;;;;;;;;4996522;28;20038;-63
2022/06/06 01:10:47;;;;;;;10.20;5.95;;;;;;;;;;4995605;28;20057;-64
2022/06/06 01:13:14;;;;;;;8.55;5.63;;;;;;;;;;4996149;28;20046;-63
2022/06/06 01:16:05;;;;;;;8.60;5.43;;;;;;;;;;4993928;28;20041;-64
2022/06/06 01:18:32;;;;;;;12.65;5.97;;;;;;;;;;4996301;28;20054;-61
2022/06/06 01:20:59;;;;;;;7.35;5.10;;;;;;;;;;5000105;28;20088;-62
2022/06/06 01:23:25;;;;;;;12.88;5.47;;;;;;;;;;5000729;28;20117;-62
2022/06/06 01:26:04;;;;;;;7.43;4.80;;;;;;;;;;5016450;28;20097;-62
2022/06/06 01:28:37;;;;;;;10.32;5.15;;;;;;;;;;5003217;28;20096;-62
2022/06/06 01:31:06;;;;;;;9.80;5.03;;;;;;;;;;5000624;28;20502;-59
2022/06/06 01:33:47;;;;;;;6.35;2.63;;;;;;;;;;5000360;28;20038;-61
2022/06/06 01:36:13;;;;;;;3.20;1.27;;;;;;;;;;5004344;28;20088;-62
2022/06/06 01:38:40;;;;;;;4.25;1.20;;;;;;;;;;5001301;28;20100;-61
2022/06/06 01:41:09;;;;;;;4.85;1.10;;;;;;;;;;5001746;28;20081;-60
2022/06/06 01:43:36;;;;;;;3.17;1.13;;;;;;;;;;5000911;28;20112;-61
2022/06/06 01:46:04;;;;;;;3.78;1.20;;;;;;;;;;5000917;28;20050;-61
2022/06/06 01:48:36;;;;;;;4.10;1.23;;;;;;;;;;4999253;28;20048;-61
2022/06/06 01:51:11;;;;;;;6.00;1.33;;;;;;;;;;5032983;28;20061;-62
2022/06/06 01:53:38;;;;;;;4.28;1.20;;;;;;;;;;4999176;28;20046;-58
2022/06/06 01:56:07;;;;;;;4.43;1.52;;;;;;;;;;4999931;28;20117;-58
2022/06/06 01:58:34;;;;;;;4.40;1.75;;;;;;;;;;4999865;28;20034;-59
2022/06/06 02:01:02;;;;;;;3.42;1.23;;;;;;;;;;5000833;28;20058;-60
2022/06/06 02:03:30;;;;;;;5.47;1.42;;;;;;;;;;5000180;28;20049;-60
2022/06/06 02:05:57;;;;;;;3.88;1.10;;;;;;;;;;5002958;28;20052;-59
2022/06/06 02:08:23;;;;;;;3.70;1.05;;;;;;;;;;5003550;28;20117;-60
2022/06/06 02:10:50;;;;;;;3.75;1.20;;;;;;;;;;5000834;28;20041;-62
2022/06/06 02:13:17;;;;;;;3.70;1.20;;;;;;;;;;4999330;28;20065;-58
2022/06/06 02:15:44;;;;;;;4.28;1.40;;;;;;;;;;5000357;28;20038;-60
2022/06/06 02:18:11;;;;;;;4.30;1.38;;;;;;;;;;5006042;28;20129;-60
2022/06/06 02:20:38;;;;;;;3.45;1.27;;;;;;;;;;5000085;28;20077;-60
2022/06/06 02:23:05;;;;;;;4.35;1.42;;;;;;;;;;4999280;28;20148;-59
2022/06/06 02:25:32;;;;;;;3.28;1.33;;;;;;;;;;5000396;28;20054;-61
2022/06/06 02:27:59;;;;;;;4.72;1.65;;;;;;;;;;4999281;28;20065;-62
2022/06/06 02:30:27;;;;;;;4.50;1.77;;;;;;;;;;4997214;28;20045;-62
2022/06/06 02:32:54;;;;;;;5.50;1.60;;;;;;;;;;5000359;28;20844;-63
2022/06/06 02:35:23;;;;;;;5.35;1.33;;;;;;;;;;5000643;28;20054;-63
2022/06/06 02:37:50;;;;;;;3.22;1.27;;;;;;;;;;5001327;28;20448;-62
2022/06/06 02:40:18;;;;;;;4.40;1.30;;;;;;;;;;4998667;28;20042;-61
2022/06/06 02:42:45;;;;;;;3.00;1.20;;;;;;;;;;4998103;28;20038;-62
2022/06/06 02:45:15;;;;;;;4.47;1.40;;;;;;;;;;5001578;28;20609;-61
2022/06/06 02:47:45;;;;;;;7.25;1.65;;;;;;;;;;5000192;28;20104;-62
2022/06/06 02:50:12;;;;;;;3.78;1.40;;;;;;;;;;4999851;28;20048;-61
2022/06/06 02:52:39;;;;;;;8.70;1.15;;;;;;;;;;5033005;28;20813;-61
2022/06/06 02:55:06;;;;;;;5.05;1.80;;;;;;;;;;5000683;28;20053;-61
2022/06/06 02:57:36;;;;;;;5.30;1.80;;;;;;;;;;4998882;28;20061;-60
2022/06/06 03:00:06;;;;;;;3.08;1.10;;;;;;;;;;4998919;28;20049;-61
2022/06/06 03:02:33;;;;;;;3.90;1.10;;;;;;;;;;4997129;28;20076;-61
2022/06/06 03:05:03;;;;;;;3.15;1.00;;;;;;;;;;5000866;28;20177;-61
2022/06/06 03:07:33;;;;;;;2.92;0.88;;;;;;;;;;4998302;28;20502;-61
2022/06/06 03:09:59;;;;;;;3.85;1.20;;;;;;;;;;5000538;28;20033;-60
2022/06/06 03:12:29;;;;;;;2.95;1.30;;;;;;;;;;4999897;28;20052;-60
2022/06/06 03:15:05;;;;;;;3.15;1.10;;;;;;;;;;4999828;28;20046;-62
2022/06/06 03:20:47;;;;;;;4.43;1.33;;;;;;;;;;5003119;28;20061;-59
2022/06/06 03:23:18;;;;;;;4.80;1.50;;;;;;;;;;5016457;28;20042;-63
2022/06/06 03:25:44;;;;;;;5.05;1.48;;;;;;;;;;5001890;28;20455;-61
2022/06/06 03:28:24;;;;;;;3.92;1.45;;;;;;;;;;5036310;28;20038;-62
2022/06/06 03:31:12;;;;;;;3.70;1.65;;;;;;;;;;5009668;28;20053;-62
2022/06/06 03:33:42;;;;;;;5.18;1.38;;;;;;;;;;5023429;28;20046;-60
2022/06/06 03:36:12;;;;;;;3.78;1.27;;;;;;;;;;5039433;28;20053;-62
2022/06/06 03:38:38;;;;;;;3.35;1.30;;;;;;;;;;5028324;28;20049;-62
2022/06/06 03:41:14;;;;;;;3.63;1.33;;;;;;;;;;5018835;28;20706;-63
2022/06/06 03:43:41;;;;;;;4.78;1.20;;;;;;;;;;5002436;28;20640;-62
2022/06/06 03:46:32;;;;;;;3.42;1.40;;;;;;;;;;5003594;28;20477;-62
2022/06/06 03:49:05;;;;;;;3.70;1.73;;;;;;;;;;5003050;28;20077;-61
2022/06/06 03:51:42;;;;;;;4.00;1.30;;;;;;;;;;5034123;28;20078;-61
2022/06/06 03:54:19;;;;;;;4.40;1.55;;;;;;;;;;5001274;28;20488;-60
2022/06/06 03:56:51;;;;;;;3.42;1.20;;;;;;;;;;5034830;28;20097;-61
2022/06/06 03:59:19;;;;;;;3.63;1.20;;;;;;;;;;5003243;28;20057;-61
2022/06/06 04:01:49;;;;;;;3.72;1.35;;;;;;;;;;5004796;28;20071;-61
2022/06/06 04:04:18;;;;;;;3.25;1.27;;;;;;;;;;5006901;28;20119;-61
2022/06/06 04:06:46;;;;;;;5.68;1.88;;;;;;;;;;5005232;28;20088;-61
2022/06/06 04:09:13;;;;;;;6.65;1.60;;;;;;;;;;5023623;28;20037;-61
2022/06/06 04:11:47;;;;;;;4.18;1.60;;;;;;;;;;5007635;28;20049;-60
2022/06/06 04:14:23;;;;;;;3.83;1.70;;;;;;;;;;5006522;28;20116;-61
2022/06/06 04:17:03;;;;;;;4.25;1.95;;;;;;;;;;5004162;28;20053;-60
2022/06/06 04:19:43;;;;;;;4.80;2.05;;;;;;;;;;5004679;28;20034;-61
2022/06/06 04:22:29;;;;;;;3.75;1.60;;;;;;;;;;5038376;28;20787;-60
2022/06/06 04:25:02;;;;;;;3.80;1.63;;;;;;;;;;5005727;28;20058;-59
2022/06/06 04:27:38;;;;;;;4.63;2.00;;;;;;;;;;5005346;28;20046;-60
2022/06/06 04:30:20;;;;;;;5.60;2.00;;;;;;;;;;5021555;28;20565;-60
2022/06/06 04:32:50;;;;;;;5.67;2.23;;;;;;;;;;5002928;28;20053;-61
2022/06/06 04:35:16;;;;;;;5.75;2.28;;;;;;;;;;5002623;28;20060;-61
2022/06/06 04:37:49;;;;;;;4.78;2.20;;;;;;;;;;5000472;28;20133;-59
2022/06/06 04:40:35;;;;;;;4.05;1.85;;;;;;;;;;4999766;28;20562;-61
2022/06/06 04:43:14;;;;;;;4.70;2.42;;;;;;;;;;4997529;28;20045;-61
2022/06/06 04:45:44;;;;;;;4.28;2.22;;;;;;;;;;5000811;28;20056;-61
2022/06/06 04:48:11;;;;;;;7.72;2.95;;;;;;;;;;5021325;28;20110;-61
2022/06/06 04:50:41;;;;;;;7.15;2.60;;;;;;;;;;5004173;28;20046;-60
2022/06/06 04:53:09;;;;;;;4.80;2.53;;;;;;;;;;4999463;28;20038;-62
2022/06/06 04:55:37;;;;;;;6.65;2.70;;;;;;;;;;5003204;28;20045;-62
2022/06/06 04:58:06;;;;;;;6.82;2.90;;;;;;;;;;5002399;28;20048;-62
2022/06/06 05:00:36;;;;;;;7.15;3.08;;;;;;;;;;5000636;28;20500;-61
2022/06/06 05:03:04;;;;;;;5.28;2.90;;;;;;;;;;5003534;28;20777;-60
2022/06/06 05:05:45;;;;;;;6.20;3.15;;;;;;;;;;5002811;28;20061;-62
2022/06/06 05:08:20;;;;;;;5.90;2.90;;;;;;;;;;5003390;28;20045;-61
2022/06/06 05:10:50;;;;;;;5.35;3.30;;;;;;;;;;5003022;28;20556;-62
2022/06/06 05:13:27;;;;;;;5.72;3.13;;;;;;;;;;5004438;28;20046;-62
2022/06/06 05:16:10;;;;;;;6.00;3.35;;;;;;;;;;5003918;28;20418;-62
2022/06/06 05:18:47;;;;;;;6.15;3.75;;;;;;;;;;5000712;28;20071;-62
2022/06/06 05:21:25;;;;;;;6.32;3.53;;;;;;;;;;5017133;28;20490;-62
2022/06/06 05:23:54;;;;;;;6.93;3.85;;;;;;;;;;4999673;28;20046;-62
2022/06/06 05:26:21;;;;;;;7.43;3.80;;;;;;;;;;5000223;28;20074;-61
2022/06/06 05:29:08;;;;;;;7.45;4.13;;;;;;;;;;5000276;28;20030;-60
2022/06/06 05:31:37;;;;;;;7.13;3.90;;;;;;;;;;4999326;28;20050;-61
2022/06/06 05:34:19;;;;;;;6.13;3.90;;;;;;;;;;5001794;28;20076;-62
2022/06/06 05:37:04;;;;;;;7.63;3.95;;;;;;;;;;4999537;28;20168;-62
2022/06/06 05:39:49;;;;;;;8.10;3.90;;;;;;;;;;4998952;28;20042;-62
2022/06/06 05:42:16;;;;;;;5.78;3.80;;;;;;;;;;4999959;28;20038;-62
2022/06/06 05:44:42;;;;;;;6.82;4.05;;;;;;;;;;4999241;28;20104;-61
2022/06/06 05:47:41;;;;;;;7.97;4.18;;;;;;;;;;5003073;28;20052;-62
2022/06/06 05:50:16;;;;;;;6.72;4.28;;;;;;;;;;4988177;28;20045;-62
2022/06/06 05:52:45;;;;;;;6.22;3.88;;;;;;;;;;5030677;28;20046;-62
2022/06/06 05:55:30;;;;;;;7.32;4.53;;;;;;;;;;4999601;28;20056;-63
2022/06/06 05:58:09;;;;;;;6.72;4.32;;;;;;;;;;4998319;28;20084;-61
2022/06/06 06:00:47;;;;;;;5.55;3.67;;;;;;;;;;4997894;28;20042;-62
2022/06/06 06:03:23;;;;;;;6.20;4.00;;;;;;;;;;4998382;28;20733;-62
2022/06/06 06:05:56;;;;;;;6.88;4.30;;;;;;;;;;5000890;28;20053;-62
2022/06/06 06:08:51;;;;;;;5.97;4.13;;;;;;;;;;4998935;28;20116;-62
2022/06/06 06:11:43;;;;;;;6.00;3.67;;;;;;;;;;5003890;28;20342;-60
2022/06/06 06:14:22;;;;;;;6.63;3.95;;;;;;;;;;5002486;28;20049;-61
2022/06/06 06:16:51;;;;;;;7.07;4.15;;;;;;;;;;5001999;28;20434;-62
2022/06/06 06:19:21;;;;;;;5.68;3.80;;;;;;;;;;5002067;28;20030;-62
2022/06/06 06:21:57;;;;;;;7.05;3.85;;;;;;;;;;5000507;28;20038;-61
2022/06/06 06:24:31;;;;;;;6.70;4.25;;;;;;;;;;4998994;28;20037;-61
2022/06/06 06:26:58;;;;;;;6.40;4.00;;;;;;;;;;5001839;28;20049;-62
2022/06/06 06:29:25;;;;;;;7.32;4.05;;;;;;;;;;5031221;28;20038;-61
2022/06/06 06:32:10;;;;;;;6.78;3.92;;;;;;;;;;5000071;28;20083;-62
2022/06/06 06:34:41;;;;;;;6.43;3.90;;;;;;;;;;4998162;28;20236;-61
2022/06/06 06:37:18;;;;;;;6.00;3.85;;;;;;;;;;4998739;28;20129;-62
2022/06/06 06:39:59;;;;;;;7.20;3.90;;;;;;;;;;4998282;28;20045;-61
2022/06/06 06:42:32;;;;;;;7.80;4.22;;;;;;;;;;4998417;28;20038;-62
2022/06/06 06:45:08;;;;;;;5.60;3.70;;;;;;;;;;4999049;28;20046;-62
2022/06/06 06:47:35;;;;;;;5.28;3.40;;;;;;;;;;4999193;28;20493;-62
2022/06/06 06:50:11;;;;;;;7.18;3.60;;;;;;;;;;4999869;28;20128;-62
2022/06/06 06:52:38;;;;;;;6.53;3.65;;;;;;;;;;4999966;28;20082;-61
2022/06/06 06:55:30;;;;;;;6.55;3.38;;;;;;;;;;4999556;28;20034;-62
2022/06/06 06:58:06;;;;;;;5.57;3.10;;;;;;;;;;4998179;28;20545;-62
2022/06/06 07:00:55;;;;;;;5.18;3.40;;;;;;;;;;4998790;28;20073;-62
2022/06/06 07:09:13;;;;;;;5.32;3.20;;;;;;;;;;4999060;28;20104;-61
2022/06/06 07:11:53;;;;;;;4.90;3.15;;;;;;;;;;5000122;28;20069;-61
2022/06/06 07:14:45;;;;;;;7.05;4.00;;;;;;;;;;4999314;28;20076;-62
2022/06/06 07:17:12;;;;;;;5.60;3.80;;;;;;;;;;4998116;28;20038;-61
2022/06/06 07:19:58;;;;;;;7.10;4.38;;;;;;;;;;4997809;28;21683;-62
2022/06/06 07:22:25;;;;;;;8.95;4.65;;;;;;;;;;4999355;28;20061;-61
2022/06/06 07:24:58;;;;;;;8.73;4.72;;;;;;;;;;5031545;28;20057;-63
2022/06/06 07:27:25;;;;;;;7.75;5.03;;;;;;;;;;4998653;28;20091;-62
2022/06/06 07:29:52;;;;;;;9.60;5.15;;;;;;;;;;5011331;28;20042;-61
2022/06/06 07:32:28;;;;;;;8.30;5.55;;;;;;;;;;4998098;28;20585;-61
2022/06/06 07:35:13;;;;;;;7.88;5.57;;;;;;;;;;4997839;28;20041;-61
2022/06/06 07:37:49;;;;;;;7.72;5.90;;;;;;;;;;4996582;28;20112;-61
2022/06/06 07:40:16;;;;;;;8.60;5.75;;;;;;;;;;4997721;28;20042;-61
2022/06/06 07:42:48;;;;;;;9.30;5.82;;;;;;;;;;4998090;28;20141;-60
2022/06/06 07:45:32;;;;;;;8.85;5.78;;;;;;;;;;4997996;28;20054;-60
2022/06/06 07:48:17;;;;;;;8.38;5.28;;;;;;;;;;4997405;28;20128;-60
2022/06/06 07:50:47;;;;;;;8.32;5.50;;;;;;;;;;4997606;28;20224;-61
2022/06/06 07:53:14;;;;;;;7.82;4.97;;;;;;;;;;4998636;28;20244;-60
2022/06/06 07:55:46;;;;;;;8.10;5.75;;;;;;;;;;4998362;28;20407;-61
2022/06/06 07:58:22;;;;;;;9.50;5.77;;;;;;;;;;4997423;28;20041;-61
2022/06/06 08:00:57;;;;;;;7.82;5.40;;;;;;;;;;4996899;28;20053;-61
2022/06/06 08:03:38;;;;;;;7.63;5.40;;;;;;;;;;4997035;28;20042;-61
2022/06/06 08:06:10;;;;;;;10.43;5.68;;;;;;;;;;4998998;28;20081;-60
2022/06/06 08:08:40;;;;;;;7.22;5.43;;;;;;;;;;4996259;28;20046;-61
2022/06/06 08:11:12;;;;;;;8.02;5.60;;;;;;;;;;4998864;28;20037;-60
2022/06/06 08:13:47;;;;;;;6.75;4.78;;;;;;;;;;4997812;28;22178;-60
2022/06/06 08:16:34;;;;;;;8.45;5.63;;;;;;;;;;4998213;28;20490;-60
2022/06/06 08:19:06;;;;;;;8.13;5.82;;;;;;;;;;4996970;28;20741;-60
2022/06/06 08:21:35;;;;;;;8.93;5.97;;;;;;;;;;5012738;28;20851;-59
2022/06/06 08:24:05;;;;;;;8.57;6.15;;;;;;;;;;5015261;28;20033;-61
2022/06/06 08:26:35;;;;;;;8.73;6.40;;;;;;;;;;5018063;28;20057;-61
2022/06/06 08:29:03;;;;;;;8.68;6.13;;;;;;;;;;5019224;28;20049;-60
2022/06/06 08:31:29;;;;;;;8.82;6.60;;;;;;;;;;5018304;28;20120;-61
2022/06/06 08:33:56;;;;;;;9.65;6.30;;;;;;;;;;5020429;28;20136;-61
2022/06/06 08:36:30;;;;;;;9.57;6.40;;;;;;;;;;5015839;28;20088;-61
2022/06/06 08:38:59;;;;;;;10.43;6.55;;;;;;;;;;5010208;28;20068;-61
2022/06/06 08:41:26;;;;;;;7.97;5.95;;;;;;;;;;5022171;28;20052;-61
2022/06/06 08:44:05;;;;;;;9.07;6.10;;;;;;;;;;4993903;28;20049;-61
2022/06/06 08:46:58;;;;;;;8.68;6.15;;;;;;;;;;5019431;28;20046;-61
2022/06/06 08:52:58;;;;;;;9.52;6.28;;;;;;;;;;5007952;28;21616;-61
2022/06/06 08:55:27;;;;;;;11.05;6.50;;;;;;;;;;5021014;28;20044;-62
2022/06/06 08:57:57;;;;;;;9.65;6.28;;;;;;;;;;5019486;28;20049;-61
2022/06/06 09:00:30;;;;;;;10.20;6.45;;;;;;;;;;5002387;28;20073;-60
2022/06/06 09:02:59;;;;;;;9.52;6.40;;;;;;;;;;5002903;28;20038;-60
2022/06/06 09:05:44;;;;;;;9.30;6.88;;;;;;;;;;5002190;28;20061;-60
2022/06/06 09:08:11;;;;;;;10.40;6.38;;;;;;;;;;5004477;28;20049;-60
2022/06/06 09:11:07;;;;;;;12.25;6.78;;;;;;;;;;5002702;28;20077;-60
2022/06/06 09:13:52;;;;;;;10.00;6.68;;;;;;;;;;5002025;28;20073;-60
2022/06/06 09:16:18;;;;;;;10.18;6.97;;;;;;;;;;5005048;28;20034;-60
2022/06/06 09:18:48;;;;;;;9.88;6.72;;;;;;;;;;5002496;28;20501;-60
2022/06/06 09:21:15;;;;;;;12.30;6.57;;;;;;;;;;5004644;28;20053;-60
2022/06/06 09:23:41;;;;;;;9.45;6.30;;;;;;;;;;5001846;28;20135;-61
2022/06/06 09:26:08;;;;;;;11.32;6.65;;;;;;;;;;5005547;28;20069;-61
2022/06/06 09:28:51;;;;;;;10.80;7.43;;;;;;;;;;5002415;28;20152;-61
2022/06/06 09:31:36;;;;;;;12.10;6.90;;;;;;;;;;5002010;28;20064;-60
2022/06/06 09:34:17;;;;;;;10.63;7.20;;;;;;;;;;5003102;28;20709;-60
2022/06/06 09:36:47;;;;;;;10.27;7.13;;;;;;;;;;5002904;28;20069;-61
2022/06/06 09:39:49;;;;;;;12.95;7.68;;;;;;;;;;5004948;28;20248;-61
2022/06/06 09:42:26;;;;;;;11.20;7.60;;;;;;;;;;4984583;28;20054;-60
2022/06/06 09:44:59;;;;;;;15.07;8.15;;;;;;;;;;5005079;28;20076;-61
2022/06/06 09:47:25;;;;;;;12.47;8.03;;;;;;;;;;5006067;28;20096;-61
2022/06/06 09:50:01;;;;;;;12.55;8.43;;;;;;;;;;5007507;28;20030;-61
2022/06/06 09:52:31;;;;;;;13.77;8.75;;;;;;;;;;5003985;28;20084;-61
2022/06/06 10:01:10;;;;;;;14.32;9.82;;;;;;;;;;5003422;28;20045;-61
2022/06/06 10:03:46;;;;;;;14.73;9.82;;;;;;;;;;5001805;28;20072;-61
2022/06/06 10:06:19;;;;;;;15.23;9.75;;;;;;;;;;5005811;28;20049;-61
2022/06/06 10:09:08;;;;;;;14.63;9.93;;;;;;;;;;5004228;28;20500;-61
2022/06/06 10:11:46;;;;;;;15.55;10.77;;;;;;;;;;5003085;28;20038;-61
2022/06/06 10:14:16;;;;;;;15.98;10.27;;;;;;;;;;5020784;28;20026;-61
2022/06/06 10:17:01;;;;;;;14.55;9.88;;;;;;;;;;5004946;28;20073;-61
2022/06/06 10:19:43;;;;;;;15.68;10.43;;;;;;;;;;5005219;28;20080;-61
2022/06/06 10:22:18;;;;;;;14.70;10.35;;;;;;;;;;5006494;28;20046;-61
2022/06/06 10:25:05;;;;;;;15.30;10.40;;;;;;;;;;5005917;28;20046;-61
2022/06/06 10:27:44;;;;;;;13.48;9.85;;;;;;;;;;5007931;28;20050;-61
2022/06/06 10:30:43;;;;;;;14.18;10.30;;;;;;;;;;5009919;28;20073;-60
2022/06/06 10:33:28;;;;;;;15.70;10.13;;;;;;;;;;4995851;28;20162;-62
2022/06/06 10:36:14;;;;;;;15.40;10.77;;;;;;;;;;5007115;28;20084;-62
2022/06/06 10:38:46;;;;;;;16.42;10.93;;;;;;;;;;5005422;28;20073;-62
2022/06/06 10:41:25;;;;;;;14.70;10.68;;;;;;;;;;5005940;28;20061;-62
2022/06/06 10:44:16;;;;;;;13.75;10.15;;;;;;;;;;5019769;28;20737;-62
2022/06/06 10:46:48;;;;;;;17.02;10.93;;;;;;;;;;4991446;28;20860;-62
2022/06/06 10:49:23;;;;;;;14.82;11.02;;;;;;;;;;5005233;28;20169;-62
2022/06/06 10:51:52;;;;;;;16.35;11.05;;;;;;;;;;5001514;28;20064;-62
2022/06/06 10:54:34;;;;;;;16.30;10.70;;;;;;;;;;5002262;28;20518;-63
2022/06/06 10:57:06;;;;;;;15.48;10.57;;;;;;;;;;5000807;28;20501;-62
2022/06/06 10:59:51;;;;;;;15.35;11.02;;;;;;;;;;4999201;28;20042;-62
2022/06/06 11:02:37;;;;;;;16.77;10.95;;;;;;;;;;5004652;28;20045;-62
2022/06/06 11:05:26;;;;;;;16.10;11.90;;;;;;;;;;5005590;28;20053;-62
2022/06/06 11:08:11;;;;;;;14.80;11.13;;;;;;;;;;5005486;28;20120;-62
2022/06/06 11:10:46;;;;;;;16.55;11.23;;;;;;;;;;5006046;28;20091;-61
2022/06/06 11:13:22;;;;;;;14.60;10.93;;;;;;;;;;5005693;28;20045;-62
2022/06/06 11:16:08;;;;;;;15.65;11.20;;;;;;;;;;5006843;28;20038;-62
2022/06/06 11:18:53;;;;;;;17.00;10.85;;;;;;;;;;5004835;28;20038;-62
2022/06/06 11:21:31;;;;;;;15.52;11.05;;;;;;;;;;5006166;28;20034;-60
2022/06/06 11:24:07;;;;;;;17.17;11.80;;;;;;;;;;5005214;28;20071;-60
2022/06/06 11:26:42;;;;;;;17.17;12.38;;;;;;;;;;5006074;28;20050;-61
2022/06/06 11:29:24;;;;;;;16.58;11.70;;;;;;;;;;5005609;28;20034;-61
2022/06/06 11:31:55;;;;;;;17.60;12.55;;;;;;;;;;5005381;28;20054;-62
2022/06/06 11:34:22;;;;;;;18.05;12.38;;;;;;;;;;5005392;28;20136;-62
2022/06/06 11:36:49;;;;;;;16.65;11.63;;;;;;;;;;5004706;28;21786;-61
2022/06/06 11:39:21;;;;;;;16.17;11.82;;;;;;;;;;5004111;28;20037;-62
2022/06/06 11:41:48;;;;;;;13.07;9.70;;;;;;;;;;5005525;28;20041;-62
2022/06/06 11:44:33;;;;;;;17.30;12.25;;;;;;;;;;5005474;28;20518;-62
2022/06/06 11:47:06;;;;;;;16.30;11.82;;;;;;;;;;5005780;28;20534;-62
2022/06/06 11:49:51;;;;;;;16.90;12.73;;;;;;;;;;5016234;28;20627;-61
2022/06/06 11:52:35;;;;;;;15.85;11.82;;;;;;;;;;5003280;28;20045;-61
2022/06/06 11:55:20;;;;;;;18.85;13.20;;;;;;;;;;5002091;28;20446;-60
2022/06/06 11:57:50;;;;;;;19.38;13.50;;;;;;;;;;4999393;28;20042;-62
2022/06/06 12:00:21;;;;;;;18.52;13.77;;;;;;;;;;5002268;28;20049;-61
2022/06/06 12:02:51;;;;;;;19.05;13.57;;;;;;;;;;5001648;28;20099;-62
2022/06/06 12:05:27;;;;;;;18.90;13.13;;;;;;;;;;5001505;28;20084;-61
2022/06/06 12:07:56;;;;;;;21.60;15.02;;;;;;;;;;5002034;28;20042;-61
2022/06/06 12:10:24;;;;;;;20.73;14.52;;;;;;;;;;5002731;28;20041;-61
2022/06/06 12:13:07;;;;;;;22.42;15.23;;;;;;;;;;5003709;28;20072;-61
2022/06/06 12:15:52;;;;;;;17.53;11.80;;;;;;;;;;5003328;28;20041;-62
2022/06/06 12:18:31;;;;;;;23.88;15.38;;;;;;;;;;5001546;28;20056;-59
2022/06/06 12:21:04;;;;;;;23.98;16.67;;;;;;;;;;4995663;28;20045;-61
2022/06/06 12:23:30;;;;;;;22.60;15.57;;;;;;;;;;4996660;28;20046;-59
2022/06/06 12:26:08;;;;;;;22.30;16.08;;;;;;;;;;5001180;28;20073;-59
2022/06/06 12:28:37;;;;;;;23.83;15.85;;;;;;;;;;5000630;28;20157;-62
2022/06/06 12:31:31;;;;;;;20.88;14.52;;;;;;;;;;5001892;28;20046;-63
2022/06/06 12:34:00;;;;;;;21.08;14.73;;;;;;;;;;4997861;28;20153;-61
2022/06/06 12:36:43;;;;;;;22.30;15.25;;;;;;;;;;4995850;28;20042;-61
2022/06/06 12:39:21;;;;;;;21.05;15.63;;;;;;;;;;4999970;28;20440;-61
2022/06/06 12:41:59;;;;;;;19.67;14.15;;;;;;;;;;4998304;28;20808;-62
2022/06/06 12:44:40;;;;;;;17.90;13.65;;;;;;;;;;4995630;28;20046;-63
2022/06/06 12:47:25;;;;;;;21.73;13.30;;;;;;;;;;4996840;28;20046;-62
2022/06/06 12:50:07;;;;;;;18.00;13.10;;;;;;;;;;4998162;28;20049;-62
2022/06/06 12:52:39;;;;;;;19.02;14.02;;;;;;;;;;4996860;28;20042;-62
2022/06/06 12:57:52;;;;;;;20.98;14.48;;;;;;;;;;4994576;28;20619;-62
2022/06/06 13:03:24;;;;;;;20.17;14.60;;;;;;;;;;4997026;28;20057;-60
2022/06/06 13:06:09;;;;;;;25.15;16.23;;;;;;;;;;4999247;28;20054;-61
2022/06/06 13:08:41;;;;;;;22.13;15.63;;;;;;;;;;4997774;28;20149;-63
2022/06/06 13:11:09;;;;;;;20.75;13.55;;;;;;;;;;5000531;28;20042;-62
2022/06/06 13:13:44;;;;;;;21.08;14.10;;;;;;;;;;5000597;28;20049;-61
2022/06/06 13:16:11;;;;;;;16.98;12.35;;;;;;;;;;5004817;28;20454;-60
2022/06/06 13:18:51;;;;;;;21.60;13.70;;;;;;;;;;5011746;28;20065;-61
2022/06/06 13:21:36;;;;;;;18.88;13.05;;;;;;;;;;5003956;28;20045;-62
2022/06/06 13:24:09;;;;;;;18.50;13.05;;;;;;;;;;5002211;28;20041;-62
2022/06/06 13:26:47;;;;;;;17.75;12.77;;;;;;;;;;5003119;28;20061;-62
2022/06/06 13:29:25;;;;;;;16.30;11.50;;;;;;;;;;5002964;28;20042;-62
2022/06/06 13:31:54;;;;;;;14.07;11.13;;;;;;;;;;5000975;28;20055;-60
2022/06/06 13:34:36;;;;;;;16.17;12.15;;;;;;;;;;5002549;28;20234;-63
2022/06/06 13:37:05;;;;;;;16.00;12.10;;;;;;;;;;5003714;28;20207;-61
2022/06/06 13:39:47;;;;;;;15.52;11.27;;;;;;;;;;5003238;28;20064;-62
2022/06/06 13:42:37;;;;;;;14.57;11.32;;;;;;;;;;5005087;28;20065;-62
2022/06/06 13:45:24;;;;;;;14.18;10.35;;;;;;;;;;5003601;28;20050;-62
2022/06/06 13:48:10;;;;;;;14.57;10.48;;;;;;;;;;5003838;28;20045;-62
2022/06/06 13:50:40;;;;;;;13.80;10.07;;;;;;;;;;5003709;28;20046;-62
2022/06/06 13:53:25;;;;;;;14.90;9.93;;;;;;;;;;5003221;28;20065;-61
2022/06/06 13:56:10;;;;;;;13.35;10.25;;;;;;;;;;5002805;28;20141;-63
2022/06/06 13:58:48;;;;;;;13.93;10.20;;;;;;;;;;5000823;28;20848;-63
2022/06/06 14:01:27;;;;;;;14.75;10.45;;;;;;;;;;5017994;28;20049;-62
2022/06/06 14:03:57;;;;;;;16.30;10.70;;;;;;;;;;5002641;28;20141;-62
2022/06/06 14:06:29;;;;;;;13.40;9.82;;;;;;;;;;5001809;28;20112;-62
2022/06/06 14:08:57;;;;;;;12.85;9.02;;;;;;;;;;5003596;28;20050;-63
2022/06/06 14:12:00;;;;;;;13.65;9.35;;;;;;;;;;5002090;28;20508;-62
2022/06/06 14:14:27;;;;;;;11.38;8.27;;;;;;;;;;4998111;28;20053;-63
2022/06/06 14:17:13;;;;;;;11.77;8.95;;;;;;;;;;5015720;28;20426;-62
2022/06/06 14:19:48;;;;;;;11.85;8.85;;;;;;;;;;5002736;28;20145;-62
2022/06/06 14:22:26;;;;;;;9.77;7.40;;;;;;;;;;5002939;28;20064;-62
2022/06/06 14:24:54;;;;;;;9.70;7.47;;;;;;;;;;5003920;28;20509;-62
2022/06/06 14:27:22;;;;;;;11.70;8.45;;;;;;;;;;5035226;28;20092;-63
2022/06/06 14:29:51;;;;;;;10.52;7.82;;;;;;;;;;5002460;28;20037;-63
2022/06/06 14:32:24;;;;;;;9.57;7.68;;;;;;;;;;5004828;28;20399;-62
2022/06/06 14:34:52;;;;;;;8.85;6.40;;;;;;;;;;5004567;28;20034;-62
2022/06/06 14:37:20;;;;;;;7.78;5.90;;;;;;;;;;5005432;28;20049;-61
2022/06/06 14:39:51;;;;;;;7.45;5.47;;;;;;;;;;5001391;28;20046;-61
2022/06/06 14:42:19;;;;;;;8.25;5.80;;;;;;;;;;5003849;28;20050;-63
2022/06/06 14:44:48;;;;;;;13.25;7.20;;;;;;;;;;5002598;28;20110;-62
2022/06/06 14:47:17;;;;;;;10.43;6.65;;;;;;;;;;5000469;28;20124;-62
2022/06/06 14:50:45;;;;;;;9.18;6.72;;;;;;;;;;5001619;28;20054;-62
2022/06/06 14:52:33;;;;;;;9.57;6.25;;;;;;;;;;5001753;28;20068;-62
2022/06/06 14:55:01;;;;;;;9.95;6.72;;;;;;;;;;5017721;28;20609;-62
2022/06/06 14:57:30;;;;;;;10.10;7.07;;;;;;;;;;5001603;28;20050;-62
2022/06/06 14:59:58;;;;;;;9.57;6.60;;;;;;;;;;5002895;28;20965;-61
2022/06/06 15:02:26;;;;;;;11.02;7.38;;;;;;;;;;5000191;28;20940;-62
2022/06/06 15:05:14;;;;;;;10.63;6.68;;;;;;;;;;4999963;28;20056;-61
2022/06/06 15:07:41;;;;;;;11.05;6.63;;;;;;;;;;4999815;28;20041;-61
2022/06/06 15:10:09;;;;;;;12.00;7.03;;;;;;;;;;5001429;28;20363;-60
2022/06/06 15:12:35;;;;;;;9.43;6.88;;;;;;;;;;5001733;28;20111;-62
2022/06/06 15:15:04;;;;;;;9.82;7.25;;;;;;;;;;5002349;28;20462;-61
2022/06/06 15:17:32;;;;;;;10.70;7.45;;;;;;;;;;4999839;28;20037;-61
2022/06/06 15:20:01;;;;;;;10.02;7.18;;;;;;;;;;5002185;28;20077;-61
2022/06/06 15:22:30;;;;;;;8.15;5.97;;;;;;;;;;4997727;28;20107;-61
2022/06/06 15:24:56;;;;;;;9.30;6.85;;;;;;;;;;4999375;28;20107;-62
2022/06/06 15:27:42;;;;;;;9.13;5.97;;;;;;;;;;5000318;28;20600;-62
2022/06/06 15:30:21;;;;;;;9.68;6.68;;;;;;;;;;5014335;28;20042;-62
2022/06/06 15:32:54;;;;;;;10.02;6.38;;;;;;;;;;4999655;28;20484;-62
2022/06/06 15:35:33;;;;;;;8.85;5.97;;;;;;;;;;4999818;28;20049;-62
2022/06/06 15:38:18;;;;;;;8.75;6.03;;;;;;;;;;4998590;28;20038;-62
2022/06/06 15:40:48;;;;;;;9.73;6.30;;;;;;;;;;4999180;28;20057;-62
2022/06/06 15:43:22;;;;;;;9.57;5.95;;;;;;;;;;5031262;28;20462;-62